createdAt,value
2022-12-05T00:01:43.783Z,69.22
2022-12-05T00:04:13.052Z,70.72
2022-12-05T00:06:41.616Z,73.68
2022-12-05T00:09:10.458Z,74.03
2022-12-05T00:11:39.275Z,72.18
2022-12-05T00:14:08.652Z,70.43
2022-12-05T00:16:38.956Z,67.22
2022-12-05T00:19:07.913Z,72.68
2022-12-05T00:21:36.791Z,71.88
2022-12-05T00:24:05.642Z,72.63
2022-12-05T00:26:33.279Z,68.78
2022-12-05T00:29:01.119Z,69.25
2022-12-05T00:31:29.049Z,69.18
2022-12-05T00:33:59.290Z,73.25
2022-12-05T00:36:29.146Z,70.53
2022-12-05T00:38:58.628Z,70.00
2022-12-05T00:41:27.677Z,70.30
2022-12-05T00:43:56.080Z,70.95
2022-12-05T00:46:25.774Z,69.97
2022-12-05T00:48:54.088Z,69.32
2022-12-05T00:51:28.320Z,72.22
2022-12-05T00:53:58.484Z,70.15
2022-12-05T00:56:27.523Z,73.53
2022-12-05T00:58:56.219Z,73.30
2022-12-05T01:01:36.028Z,78.13
2022-12-05T01:04:15.656Z,73.32
2022-12-05T01:06:43.541Z,71.13
2022-12-05T01:09:14.485Z,74.30
2022-12-05T01:11:49.909Z,72.63
2022-12-05T01:14:21.543Z,74.57
2022-12-05T01:16:50.131Z,68.35
2022-12-05T01:19:20.679Z,69.97
2022-12-05T01:21:48.139Z,69.28
2022-12-05T01:24:16.360Z,71.43
2022-12-05T01:26:43.905Z,69.75
2022-12-05T01:29:12.340Z,72.38
2022-12-05T01:31:39.870Z,72.20
2022-12-05T01:34:13.445Z,69.22
2022-12-05T01:36:41.213Z,65.57
2022-12-05T01:39:09.293Z,69.88
2022-12-05T01:41:39.030Z,69.20
2022-12-05T01:44:13.586Z,66.25
2022-12-05T01:46:49.131Z,70.80
2022-12-05T01:49:18.922Z,66.13
2022-12-05T01:51:48.357Z,66.20
2022-12-05T01:56:49.818Z,65.32
2022-12-05T01:59:19.956Z,66.03
2022-12-05T02:01:47.317Z,68.25
2022-12-05T02:04:14.847Z,65.80
2022-12-05T02:06:42.085Z,69.20
2022-12-05T02:09:09.640Z,65.85
2022-12-05T02:11:51.751Z,67.80
2022-12-05T02:14:31.569Z,69.10
2022-12-05T02:17:17.727Z,68.63
2022-12-05T02:20:26.787Z,67.22
2022-12-05T02:23:20.474Z,69.07
2022-12-05T02:26:08.912Z,65.43
2022-12-05T02:28:57.820Z,67.77
2022-12-05T02:31:35.561Z,65.20
2022-12-05T02:34:11.126Z,67.65
2022-12-05T02:36:43.579Z,66.93
2022-12-05T02:39:35.791Z,69.25
2022-12-05T02:42:11.522Z,66.80
2022-12-05T02:44:49.744Z,67.93
2022-12-05T02:47:20.055Z,66.95
2022-12-05T02:49:48.479Z,62.78
2022-12-05T02:52:17.698Z,60.63
2022-12-05T02:54:48.020Z,60.47
2022-12-05T02:57:16.151Z,61.20
2022-12-05T02:59:43.388Z,59.53
2022-12-05T03:02:32.913Z,58.22
2022-12-05T03:05:11.002Z,56.50
2022-12-05T03:07:39.005Z,58.10
2022-12-05T03:10:10.492Z,56.65
2022-12-05T03:12:45.423Z,55.50
2022-12-05T03:15:20.337Z,55.47
2022-12-05T03:18:20.381Z,54.88
2022-12-05T03:21:24.933Z,51.33
2022-12-05T03:23:57.547Z,52.40
2022-12-05T03:26:41.635Z,54.45
2022-12-05T03:29:26.816Z,55.53
2022-12-05T03:32:06.238Z,54.90
2022-12-05T03:34:47.073Z,52.60
2022-12-05T03:37:32.359Z,55.65
2022-12-05T03:40:07.591Z,55.92
2022-12-05T03:42:36.519Z,54.90
2022-12-05T03:45:09.646Z,56.05
2022-12-05T03:47:48.636Z,53.58
2022-12-05T03:50:28.162Z,53.67
2022-12-05T03:53:21.570Z,51.45
2022-12-05T03:55:57.433Z,53.25
2022-12-05T03:58:54.417Z,50.65
2022-12-05T04:01:23.532Z,51.67
2022-12-05T04:03:55.454Z,54.33
2022-12-05T04:06:35.135Z,51.20
2022-12-05T04:09:24.458Z,51.30
2022-12-05T04:14:33.987Z,50.08
2022-12-05T04:17:08.781Z,51.60
2022-12-05T04:20:01.071Z,52.55
2022-12-05T04:22:28.737Z,50.92
2022-12-05T04:25:17.019Z,47.90
2022-12-05T04:27:50.712Z,48.47
2022-12-05T04:30:23.658Z,47.72
2022-12-05T04:33:02.847Z,51.17
2022-12-05T04:35:38.194Z,46.35
2022-12-05T04:38:19.218Z,46.42
2022-12-05T04:41:01.197Z,47.50
2022-12-05T04:43:30.805Z,46.88
2022-12-05T04:46:00.641Z,46.08
2022-12-05T04:48:30.950Z,46.55
2022-12-05T04:51:07.747Z,46.63
2022-12-05T04:53:36.567Z,45.83
2022-12-05T04:56:05.351Z,44.55
2022-12-05T04:58:33.200Z,46.72
2022-12-05T05:01:08.133Z,46.70
2022-12-05T05:03:50.819Z,46.30
2022-12-05T05:06:18.448Z,47.20
2022-12-05T05:08:54.019Z,46.22
2022-12-05T05:11:26.696Z,47.08
2022-12-05T05:13:54.612Z,47.67
2022-12-05T05:16:27.560Z,44.97
2022-12-05T05:18:55.829Z,44.55
2022-12-05T05:21:31.857Z,41.25
2022-12-05T05:23:59.836Z,42.95
2022-12-05T05:26:28.450Z,42.30
2022-12-05T05:28:57.436Z,41.93
2022-12-05T05:31:25.358Z,41.03
2022-12-05T05:33:56.212Z,41.92
2022-12-05T05:36:25.271Z,40.08
2022-12-05T05:38:57.921Z,40.60
2022-12-05T05:41:27.520Z,39.97
2022-12-05T05:43:55.250Z,38.88
2022-12-05T05:46:24.875Z,39.55
2022-12-05T05:48:52.594Z,38.60
2022-12-05T05:51:20.679Z,38.58
2022-12-05T05:53:48.520Z,37.67
2022-12-05T05:56:21.722Z,36.25
2022-12-05T05:59:00.272Z,36.40
2022-12-05T06:01:27.877Z,35.70
2022-12-05T06:03:55.395Z,37.03
2022-12-05T06:06:25.241Z,36.15
2022-12-05T06:08:52.715Z,35.75
2022-12-05T06:11:25.828Z,36.97
2022-12-05T06:13:54.762Z,35.63
2022-12-05T06:16:22.309Z,37.67
2022-12-05T06:18:52.876Z,36.03
2022-12-05T06:21:20.674Z,34.60
2022-12-05T06:23:48.054Z,35.63
2022-12-05T06:26:18.699Z,34.22
2022-12-05T06:28:46.339Z,33.83
2022-12-05T06:31:19.973Z,35.28
2022-12-05T06:33:47.542Z,33.92
2022-12-05T06:36:18.878Z,32.90
2022-12-05T06:38:46.248Z,32.95
2022-12-05T06:41:18.663Z,33.22
2022-12-05T06:43:46.327Z,33.65
2022-12-05T06:46:15.825Z,32.42
2022-12-05T06:48:43.320Z,33.47
2022-12-05T06:51:12.370Z,32.28
2022-12-05T06:53:39.829Z,32.75
2022-12-05T06:56:16.716Z,33.80
2022-12-05T06:58:46.046Z,31.90
2022-12-05T07:01:32.797Z,33.90
2022-12-05T07:04:00.323Z,31.48
2022-12-05T07:06:28.115Z,32.15
2022-12-05T07:08:55.479Z,29.77
2022-12-05T07:11:22.654Z,30.48
2022-12-05T07:13:49.914Z,32.10
2022-12-05T07:16:17.272Z,31.67
2022-12-05T07:18:44.623Z,29.30
2022-12-05T07:21:14.667Z,30.63
2022-12-05T07:23:44.032Z,32.03
2022-12-05T07:26:15.590Z,31.42
2022-12-05T07:28:43.445Z,31.27
2022-12-05T07:31:13.497Z,28.45
2022-12-05T07:33:40.808Z,28.80
2022-12-05T07:36:10.905Z,28.73
2022-12-05T07:38:38.310Z,28.15
2022-12-05T07:41:12.790Z,26.60
2022-12-05T07:43:41.285Z,27.15
2022-12-05T07:46:09.427Z,27.60
2022-12-05T07:48:36.672Z,27.35
2022-12-05T07:51:05.509Z,25.92
2022-12-05T07:53:33.515Z,23.90
2022-12-05T07:56:02.239Z,24.80
2022-12-05T07:58:30.031Z,24.05
2022-12-05T08:00:58.259Z,25.00
2022-12-05T08:03:25.511Z,24.85
2022-12-05T08:05:52.834Z,25.10
2022-12-05T08:08:20.114Z,24.30
2022-12-05T08:10:47.389Z,24.98
2022-12-05T08:13:14.637Z,26.70
2022-12-05T08:15:41.832Z,24.85
2022-12-05T08:18:09.004Z,26.00
2022-12-05T08:20:36.200Z,24.90
2022-12-05T08:23:03.428Z,24.90
2022-12-05T08:25:30.777Z,26.38
2022-12-05T08:27:58.053Z,27.05
2022-12-05T08:30:25.343Z,25.92
2022-12-05T08:32:52.955Z,26.00
2022-12-05T08:35:20.505Z,25.77
2022-12-05T08:37:50.687Z,26.83
2022-12-05T08:40:18.314Z,26.27
2022-12-05T08:42:48.702Z,25.35
2022-12-05T08:45:18.319Z,25.20
2022-12-05T08:47:45.882Z,24.08
2022-12-05T08:50:14.006Z,25.25
2022-12-05T08:52:41.540Z,25.17
2022-12-05T08:55:12.079Z,24.67
2022-12-05T08:57:39.491Z,24.52
2022-12-05T09:00:07.273Z,24.98
2022-12-05T09:02:34.546Z,25.13
2022-12-05T09:05:13.537Z,25.40
2022-12-05T09:07:49.304Z,24.38
2022-12-05T09:10:16.846Z,25.95
2022-12-05T09:12:44.216Z,25.90
2022-12-05T09:15:12.752Z,26.17
2022-12-05T09:17:40.293Z,26.83
2022-12-05T09:20:13.970Z,27.05
2022-12-05T09:22:42.252Z,27.75
2022-12-05T09:25:10.157Z,28.83
2022-12-05T09:27:38.662Z,28.95
2022-12-05T09:30:07.444Z,29.80
2022-12-05T09:32:37.550Z,30.13
2022-12-05T09:35:05.158Z,30.23
2022-12-05T09:37:40.295Z,31.33
2022-12-05T09:40:10.405Z,29.10
2022-12-05T09:42:54.174Z,31.70
2022-12-05T09:45:30.321Z,31.77
2022-12-05T09:48:16.829Z,33.05
2022-12-05T09:51:00.746Z,32.88
2022-12-05T09:53:33.131Z,32.22
2022-12-05T09:56:05.867Z,32.20
2022-12-05T09:58:50.514Z,30.48
2022-12-05T10:01:35.800Z,30.65
2022-12-05T10:04:02.915Z,30.33
2022-12-05T10:06:36.631Z,31.98
2022-12-05T10:09:15.431Z,31.90
2022-12-05T10:12:05.794Z,31.92
2022-12-05T10:14:51.599Z,30.73
2022-12-05T10:17:30.474Z,33.58
2022-12-05T10:20:01.108Z,32.20
2022-12-05T10:22:53.476Z,30.95
2022-12-05T10:25:22.710Z,31.83
2022-12-05T10:27:52.704Z,31.30
2022-12-05T10:30:25.211Z,31.92
2022-12-05T10:32:59.360Z,33.30
2022-12-05T10:35:38.487Z,32.65
2022-12-05T10:38:22.637Z,33.47
2022-12-05T10:40:52.640Z,32.60
2022-12-05T10:43:28.829Z,32.53
2022-12-05T10:45:56.644Z,31.65
2022-12-05T10:48:24.701Z,32.83
2022-12-05T10:50:56.808Z,30.50
2022-12-05T10:53:43.325Z,31.52
2022-12-05T10:56:42.910Z,31.48
2022-12-05T10:59:22.946Z,32.58
2022-12-05T11:02:00.909Z,32.40
2022-12-05T11:04:44.579Z,33.78
2022-12-05T11:07:43.366Z,34.47
2022-12-05T11:10:36.625Z,33.13
2022-12-05T11:13:19.178Z,33.42
2022-12-05T11:15:52.252Z,32.15
2022-12-05T11:18:25.669Z,34.13
2022-12-05T11:20:53.180Z,32.67
2022-12-05T11:23:28.977Z,34.15
2022-12-05T11:26:00.551Z,35.17
2022-12-05T11:28:33.506Z,48.60
2022-12-05T11:31:05.148Z,32.22
2022-12-05T11:33:36.775Z,36.85
2022-12-05T11:36:35.854Z,45.47
2022-12-05T11:39:03.146Z,39.88
2022-12-05T11:42:01.307Z,31.40
2022-12-05T11:44:47.416Z,30.60
2022-12-05T11:47:51.794Z,53.58
2022-12-05T11:50:25.232Z,71.72
2022-12-05T11:53:16.753Z,62.10
2022-12-05T11:55:49.243Z,37.50
2022-12-05T11:58:46.745Z,32.83
2022-12-05T12:01:32.088Z,54.38
2022-12-05T12:04:18.181Z,35.92
2022-12-05T12:06:55.096Z,32.33
2022-12-05T12:09:39.431Z,30.35
2022-12-05T12:12:22.711Z,30.67
2022-12-05T12:15:07.391Z,30.48
2022-12-05T12:17:55.297Z,32.42
2022-12-05T12:20:54.695Z,30.50
2022-12-05T12:24:01.409Z,31.98
2022-12-05T12:26:50.246Z,30.20
2022-12-05T12:29:56.868Z,33.83
2022-12-05T12:32:36.470Z,33.40
2022-12-05T12:35:15.521Z,31.42
2022-12-05T12:37:52.708Z,33.08
2022-12-05T12:40:28.303Z,32.90
2022-12-05T12:43:51.997Z,33.22
2022-12-05T12:46:20.106Z,32.45
2022-12-05T12:48:59.104Z,35.33
2022-12-05T12:51:26.578Z,32.47
2022-12-05T12:54:08.701Z,33.33
2022-12-05T12:56:46.456Z,36.72
2022-12-05T12:59:17.090Z,35.05
2022-12-05T13:01:53.338Z,34.53
2022-12-05T13:04:24.929Z,33.80
2022-12-05T13:07:01.377Z,35.30
2022-12-05T13:09:37.331Z,35.53
2022-12-05T13:12:11.879Z,34.33
2022-12-05T13:14:41.309Z,35.28
2022-12-05T13:19:45.861Z,34.85
2022-12-05T13:22:13.506Z,35.97
2022-12-05T13:24:45.678Z,36.28
2022-12-05T13:27:21.879Z,35.53
2022-12-05T13:29:58.866Z,36.15
2022-12-05T13:32:40.846Z,36.33
2022-12-05T13:35:07.916Z,36.75
2022-12-05T13:37:53.926Z,38.08
2022-12-05T13:40:44.089Z,36.55
2022-12-05T13:43:13.236Z,37.28
2022-12-05T13:45:42.018Z,35.90
2022-12-05T13:48:22.866Z,37.38
2022-12-05T13:50:55.658Z,36.80
2022-12-05T13:53:33.288Z,35.55
2022-12-05T13:56:15.672Z,39.85
2022-12-05T13:59:09.899Z,37.55
2022-12-05T14:01:53.740Z,38.33
2022-12-05T14:04:44.836Z,37.78
2022-12-05T14:07:12.467Z,37.97
2022-12-05T14:09:54.137Z,37.90
2022-12-05T14:12:21.209Z,36.63
2022-12-05T14:14:57.185Z,38.28
2022-12-05T14:17:30.852Z,47.72
2022-12-05T14:20:25.175Z,38.42
2022-12-05T14:23:17.787Z,37.78
2022-12-05T14:26:14.051Z,36.97
2022-12-05T14:29:25.133Z,35.78
2022-12-05T14:32:09.963Z,37.35
2022-12-05T14:35:15.594Z,39.10
2022-12-05T14:38:22.751Z,36.78
2022-12-05T14:40:50.179Z,35.28
2022-12-05T14:43:30.009Z,36.17
2022-12-05T14:45:57.390Z,37.33
2022-12-05T14:48:33.657Z,37.42
2022-12-05T14:51:01.499Z,39.50
2022-12-05T14:53:39.626Z,37.15
2022-12-05T14:56:22.631Z,37.38
2022-12-05T14:59:21.326Z,39.30
2022-12-05T15:01:52.449Z,36.60
2022-12-05T15:04:41.474Z,36.63
2022-12-05T15:07:18.413Z,39.22
2022-12-05T15:10:01.484Z,36.85
2022-12-05T15:12:57.543Z,36.08
2022-12-05T15:15:44.631Z,37.40
2022-12-05T15:18:20.824Z,36.85
2022-12-05T15:21:13.551Z,37.70
2022-12-05T15:23:48.647Z,37.15
2022-12-05T15:29:15.853Z,37.55
2022-12-05T15:31:48.690Z,37.97
2022-12-05T15:34:26.340Z,38.92
2022-12-05T15:37:13.968Z,38.53
2022-12-05T15:40:12.142Z,39.05
2022-12-05T15:42:47.086Z,39.72
2022-12-05T15:45:14.602Z,38.80
2022-12-05T15:47:48.351Z,40.30
2022-12-05T15:50:36.949Z,38.28
2022-12-05T15:53:34.376Z,40.20
2022-12-05T15:56:26.437Z,36.95
2022-12-05T15:59:06.027Z,39.05
2022-12-05T16:01:35.807Z,39.40
2022-12-05T16:04:15.939Z,40.13
2022-12-05T16:06:46.454Z,39.75
2022-12-05T16:09:22.286Z,37.60
2022-12-05T16:11:53.263Z,39.13
2022-12-05T16:14:43.711Z,38.53
2022-12-05T16:17:14.469Z,38.83
2022-12-05T16:19:41.743Z,39.08
2022-12-05T16:22:14.717Z,38.42
2022-12-05T16:25:02.489Z,37.28
2022-12-05T16:27:34.582Z,38.13
2022-12-05T16:30:12.555Z,37.53
2022-12-05T16:32:40.869Z,37.42
2022-12-05T16:35:31.067Z,39.63
2022-12-05T16:38:11.283Z,40.03
2022-12-05T16:40:54.884Z,40.08
2022-12-05T16:43:31.859Z,39.50
2022-12-05T16:46:15.454Z,37.75
2022-12-05T16:48:47.639Z,37.67
2022-12-05T16:51:39.955Z,37.28
2022-12-05T16:54:08.597Z,37.72
2022-12-05T16:56:36.366Z,37.13
2022-12-05T16:59:14.476Z,36.42
2022-12-05T17:01:41.720Z,37.22
2022-12-05T17:04:11.531Z,37.50
2022-12-05T17:06:39.367Z,34.00
2022-12-05T17:09:13.291Z,34.88
2022-12-05T17:11:42.978Z,33.42
2022-12-05T17:14:18.158Z,35.13
2022-12-05T17:16:45.909Z,35.85
2022-12-05T17:19:13.805Z,33.22
2022-12-05T17:21:42.584Z,34.75
2022-12-05T17:24:16.358Z,33.97
2022-12-05T17:26:44.152Z,34.30
2022-12-05T17:29:12.166Z,34.67
2022-12-05T17:31:39.482Z,34.22
2022-12-05T17:34:15.880Z,36.30
2022-12-05T17:36:44.633Z,36.25
2022-12-05T17:39:12.162Z,35.72
2022-12-05T17:41:39.699Z,35.60
2022-12-05T17:44:07.519Z,35.88
2022-12-05T17:46:34.857Z,36.03
2022-12-05T17:49:02.322Z,38.00
2022-12-05T17:51:30.415Z,36.08
2022-12-05T17:53:57.810Z,37.22
2022-12-05T17:56:25.212Z,35.25
2022-12-05T17:58:52.774Z,37.40
2022-12-05T18:01:21.289Z,38.25
2022-12-05T18:03:49.251Z,39.47
2022-12-05T18:06:16.949Z,41.58
2022-12-05T18:08:45.121Z,38.50
2022-12-05T18:11:13.453Z,38.25
2022-12-05T18:13:40.812Z,34.55
2022-12-05T18:16:08.473Z,36.05
2022-12-05T18:18:36.054Z,34.88
2022-12-05T18:21:11.801Z,36.13
2022-12-05T18:23:40.324Z,34.92
2022-12-05T18:26:09.366Z,33.67
2022-12-05T18:28:38.475Z,34.47
2022-12-05T18:31:11.656Z,37.78
2022-12-05T18:33:39.555Z,34.22
2022-12-05T18:36:13.876Z,34.80
2022-12-05T18:38:42.707Z,35.08
2022-12-05T18:41:10.530Z,35.42
2022-12-05T18:43:37.742Z,34.97
2022-12-05T18:46:05.774Z,35.40
2022-12-05T18:48:46.107Z,32.83
2022-12-05T18:51:18.880Z,33.55
2022-12-05T18:53:51.753Z,31.33
2022-12-05T18:56:26.413Z,31.27
2022-12-05T18:59:02.503Z,32.28
2022-12-05T19:01:31.085Z,33.05
2022-12-05T19:03:59.258Z,31.17
2022-12-05T19:06:29.804Z,29.60
2022-12-05T19:08:59.359Z,29.10
2022-12-05T19:11:27.092Z,27.38
2022-12-05T19:13:59.653Z,25.73
2022-12-05T19:16:27.937Z,27.33
2022-12-05T19:18:56.828Z,26.33
2022-12-05T19:21:25.460Z,26.58
2022-12-05T19:23:52.970Z,26.10
2022-12-05T19:26:20.451Z,25.67
2022-12-05T19:28:47.699Z,25.20
2022-12-05T19:31:17.394Z,23.65
2022-12-05T19:33:46.602Z,24.55
2022-12-05T19:36:16.491Z,24.95
2022-12-05T19:38:45.764Z,24.67
2022-12-05T19:41:14.971Z,22.38
2022-12-05T19:43:44.755Z,23.83
2022-12-05T19:46:14.920Z,21.85
2022-12-05T19:48:42.757Z,21.58
2022-12-05T19:51:10.037Z,20.95
2022-12-05T19:53:39.358Z,19.70
2022-12-05T19:56:15.261Z,20.77
2022-12-05T19:58:42.846Z,19.95
2022-12-05T20:01:31.281Z,19.27
2022-12-05T20:04:06.845Z,21.25
2022-12-05T20:06:36.528Z,21.30
2022-12-05T20:09:04.825Z,21.52
2022-12-05T20:11:32.299Z,21.27
2022-12-05T20:14:01.017Z,20.00
2022-12-05T20:16:28.964Z,20.50
2022-12-05T20:18:58.960Z,20.33
2022-12-05T20:21:28.571Z,19.83
2022-12-05T20:23:56.058Z,19.30
2022-12-05T20:26:25.113Z,20.63
2022-12-05T20:28:52.921Z,20.13
2022-12-05T20:31:26.171Z,21.23
2022-12-05T20:33:54.601Z,21.77
2022-12-05T20:36:27.112Z,21.30
2022-12-05T20:39:08.711Z,21.85
2022-12-05T20:41:36.344Z,20.73
2022-12-05T20:44:09.027Z,19.88
2022-12-05T20:46:37.624Z,20.67
2022-12-05T20:49:05.063Z,20.55
2022-12-05T20:51:33.930Z,19.92
2022-12-05T20:54:03.266Z,21.52
2022-12-05T20:59:01.460Z,20.20
2022-12-05T21:01:30.275Z,18.92
2022-12-05T21:03:57.780Z,20.25
2022-12-05T21:06:27.299Z,20.77
2022-12-05T21:08:55.814Z,20.48
2022-12-05T21:11:24.344Z,19.60
2022-12-05T21:13:52.070Z,18.80
2022-12-05T21:16:20.993Z,19.38
2022-12-05T21:18:49.000Z,19.52
2022-12-05T21:21:26.886Z,19.42
2022-12-05T21:23:59.155Z,20.00
2022-12-05T21:26:28.025Z,18.33
2022-12-05T21:28:55.858Z,19.30
2022-12-05T21:31:30.949Z,19.48
2022-12-05T21:34:04.184Z,19.10
2022-12-05T21:36:33.442Z,18.88
2022-12-05T21:39:01.049Z,18.65
2022-12-05T21:41:28.838Z,18.42
2022-12-05T21:43:56.314Z,18.45
2022-12-05T21:46:24.902Z,18.17
2022-12-05T21:48:52.799Z,17.25
2022-12-05T21:51:20.091Z,19.13
2022-12-05T21:53:47.394Z,19.02
2022-12-05T21:56:22.790Z,18.17
2022-12-05T21:58:50.319Z,18.45
2022-12-05T22:01:20.447Z,18.80
2022-12-05T22:03:52.548Z,17.85
2022-12-05T22:06:19.970Z,16.65
2022-12-05T22:08:47.366Z,15.95
2022-12-05T22:11:19.646Z,16.63
2022-12-05T22:13:48.775Z,15.65
2022-12-05T22:16:16.827Z,16.67
2022-12-05T22:18:44.989Z,17.67
2022-12-05T22:21:20.212Z,16.50
2022-12-05T22:23:48.150Z,17.27
2022-12-05T22:26:18.090Z,16.88
2022-12-05T22:28:45.758Z,16.90
2022-12-05T22:31:15.087Z,16.85
2022-12-05T22:36:11.825Z,16.80
2022-12-05T22:38:41.521Z,16.95
2022-12-05T22:41:15.314Z,17.88
2022-12-05T22:43:43.933Z,16.40
2022-12-05T22:46:17.769Z,16.67
2022-12-05T22:48:45.369Z,16.38
2022-12-05T22:51:13.606Z,16.73
2022-12-05T22:53:41.296Z,16.55
2022-12-05T22:56:14.916Z,18.17
2022-12-05T22:58:42.575Z,17.02
2022-12-05T23:01:18.282Z,15.35
2022-12-05T23:03:46.885Z,16.13
2022-12-05T23:06:15.590Z,15.80
2022-12-05T23:08:44.619Z,17.10
2022-12-05T23:11:12.591Z,16.80
2022-12-05T23:13:39.986Z,16.50
2022-12-05T23:16:13.108Z,15.85
2022-12-05T23:18:49.529Z,17.30
2022-12-05T23:21:16.617Z,16.67
2022-12-05T23:23:44.148Z,18.10
2022-12-05T23:26:12.820Z,19.08
2022-12-05T23:28:40.122Z,17.50
2022-12-05T23:31:09.088Z,17.95
2022-12-05T23:33:36.769Z,17.90
2022-12-05T23:36:04.927Z,18.92
2022-12-05T23:38:33.388Z,19.02
2022-12-05T23:41:10.671Z,17.85
2022-12-05T23:43:39.353Z,17.65
2022-12-05T23:46:06.887Z,17.58
2022-12-05T23:48:34.419Z,18.33
2022-12-05T23:51:14.394Z,17.70
2022-12-05T23:53:43.539Z,17.10
2022-12-05T23:56:16.473Z,18.33
2022-12-05T23:58:45.154Z,17.25
